Time;durP1;ratioP1;P1;durP2;ratioP2;P2;SDS_P1;SDS_P2;PMS_P1;PMS_P2;Temp;Humidity;BMP_temperature;BMP_pressure;BME280_temperature;BME280_humidity;BME280_pressure;Samples;Min_cycle;Max_cycle;Signal;HPM_P1;HPM_P2
2023/01/31 00:01:23;;;;;;;1.52;0.70;;;5.40;99.90;;;;;;5070261;28;20201;-66
2023/01/31 00:03:53;;;;;;;1.70;0.50;;;5.50;99.90;;;;;;5068775;28;20279;-65
2023/01/31 00:06:24;;;;;;;0.75;0.50;;;5.60;99.90;;;;;;5070752;28;20250;-65
2023/01/31 00:08:52;;;;;;;2.45;0.90;;;5.60;99.90;;;;;;5070223;28;20287;-65
2023/01/31 00:11:22;;;;;;;0.50;0.40;;;5.70;99.90;;;;;;5062791;28;20280;-65
2023/01/31 00:13:50;;;;;;;0.70;0.70;;;5.80;99.90;;;;;;5063965;28;20197;-65
2023/01/31 00:16:19;;;;;;;0.82;0.50;;;6.00;99.90;;;;;;5063127;28;20221;-66
2023/01/31 00:18:48;;;;;;;1.63;0.80;;;6.10;99.90;;;;;;5061700;28;20201;-65
2023/01/31 00:21:18;;;;;;;0.88;0.60;;;6.30;99.90;;;;;;5062647;28;20201;-65
2023/01/31 00:23:47;;;;;;;0.50;0.50;;;6.50;99.90;;;;;;5063661;28;20204;-65
2023/01/31 00:26:16;;;;;;;0.60;0.50;;;6.50;99.90;;;;;;5064344;28;20584;-65
2023/01/31 00:28:46;;;;;;;4.97;0.60;;;6.50;99.90;;;;;;5063968;28;20193;-65
2023/01/31 00:31:15;;;;;;;0.60;0.52;;;6.30;99.90;;;;;;5067244;28;20219;-65
2023/01/31 00:33:45;;;;;;;0.60;0.43;;;6.00;99.90;;;;;;5070983;28;20201;-65
2023/01/31 00:36:17;;;;;;;0.60;0.50;;;6.00;99.90;;;;;;5069108;28;20232;-66
2023/01/31 00:38:45;;;;;;;0.50;0.40;;;6.10;99.90;;;;;;5070924;28;20224;-65
2023/01/31 00:41:12;;;;;;;0.70;0.40;;;6.10;99.90;;;;;;5071225;28;20638;-64
2023/01/31 00:43:40;;;;;;;0.80;0.50;;;6.20;99.90;;;;;;5070657;28;20208;-65
2023/01/31 00:46:08;;;;;;;1.25;0.98;;;6.20;99.90;;;;;;5069418;28;20272;-65
2023/01/31 00:48:36;;;;;;;0.50;0.40;;;6.20;99.90;;;;;;5069763;28;20305;-64
2023/01/31 00:51:05;;;;;;;0.80;0.52;;;6.20;99.90;;;;;;5062334;28;20258;-65
2023/01/31 00:53:34;;;;;;;0.93;0.43;;;6.10;99.90;;;;;;5067451;28;20283;-64
2023/01/31 00:56:07;;;;;;;0.60;0.40;;;6.00;99.90;;;;;;5070305;28;20708;-65
2023/01/31 00:58:35;;;;;;;0.60;0.40;;;5.90;99.90;;;;;;5073769;28;20739;-64
2023/01/31 01:01:08;;;;;;;1.73;0.55;;;5.60;99.90;;;;;;5067018;28;20286;-65
2023/01/31 01:03:36;;;;;;;0.70;0.50;;;5.60;99.90;;;;;;5073424;28;20245;-64
2023/01/31 01:06:06;;;;;;;0.80;0.60;;;5.40;99.90;;;;;;5074042;28;20212;-65
2023/01/31 01:08:36;;;;;;;0.60;0.50;;;5.30;99.90;;;;;;5073200;28;20338;-65
2023/01/31 01:11:05;;;;;;;2.20;1.20;;;5.20;99.90;;;;;;5071823;28;20201;-65
2023/01/31 01:13:33;;;;;;;2.90;0.77;;;5.10;99.90;;;;;;5072107;28;20300;-64
2023/01/31 01:16:05;;;;;;;1.00;0.68;;;5.20;99.90;;;;;;5073816;28;20588;-64
2023/01/31 01:18:34;;;;;;;0.60;0.50;;;5.00;99.90;;;;;;5072748;28;20799;-64
2023/01/31 01:21:08;;;;;;;1.80;0.73;;;5.10;99.90;;;;;;5068310;28;20270;-65
2023/01/31 01:23:38;;;;;;;1.83;0.70;;;5.00;99.90;;;;;;5072823;28;20185;-64
2023/01/31 01:26:06;;;;;;;0.60;0.50;;;4.90;99.90;;;;;;5072779;28;20311;-64
2023/01/31 01:28:34;;;;;;;0.60;0.60;;;4.80;99.90;;;;;;5073976;28;20683;-64
2023/01/31 01:31:06;;;;;;;1.77;0.93;;;5.00;99.90;;;;;;5072206;28;20208;-64
2023/01/31 01:33:35;;;;;;;0.70;0.60;;;4.90;99.90;;;;;;5074126;28;20671;-65
2023/01/31 01:36:04;;;;;;;0.80;0.57;;;5.00;99.90;;;;;;5072389;28;20256;-64
2023/01/31 01:38:34;;;;;;;0.50;0.38;;;5.10;99.90;;;;;;5073639;28;20254;-64
2023/01/31 01:41:05;;;;;;;0.50;0.40;;;5.10;99.90;;;;;;5071373;28;20202;-65
2023/01/31 01:43:43;;;;;;;1.10;1.00;;;5.30;99.90;;;;;;5073122;28;20204;-65
2023/01/31 01:46:14;;;;;;;0.75;0.50;;;5.20;99.90;;;;;;5072590;28;20332;-65
2023/01/31 01:48:45;;;;;;;0.50;0.40;;;5.20;99.90;;;;;;5072599;28;20744;-64
2023/01/31 01:51:18;;;;;;;0.88;0.50;;;5.30;99.90;;;;;;5072574;28;20725;-64
2023/01/31 01:53:49;;;;;;;1.42;0.80;;;5.50;99.90;;;;;;5054834;28;20204;-65
2023/01/31 01:56:23;;;;;;;0.82;0.80;;;5.50;99.90;;;;;;5072092;28;20241;-65
2023/01/31 01:58:59;;;;;;;0.60;0.50;;;5.00;99.90;;;;;;5073399;28;20228;-65
2023/01/31 02:01:35;;;;;;;0.60;0.40;;;4.60;99.90;;;;;;5070414;28;20283;-65
2023/01/31 02:04:05;;;;;;;1.08;0.55;;;4.40;99.90;;;;;;5073324;28;20285;-65
2023/01/31 02:06:33;;;;;;;0.70;0.60;;;4.40;99.90;;;;;;5070464;28;20585;-64
2023/01/31 02:09:03;;;;;;;0.60;0.50;;;4.50;99.90;;;;;;5066717;28;20307;-65
2023/01/31 02:11:32;;;;;;;0.70;0.70;;;4.70;99.90;;;;;;5056754;28;20244;-65
2023/01/31 02:14:03;;;;;;;1.15;0.68;;;4.80;99.90;;;;;;5072121;28;20277;-65
2023/01/31 02:16:31;;;;;;;0.60;0.55;;;4.30;99.90;;;;;;5071839;28;20673;-65
2023/01/31 02:19:00;;;;;;;0.88;0.57;;;3.80;99.90;;;;;;5070781;28;20246;-65
2023/01/31 02:22:00;;;;;;;0.70;0.50;;;3.70;99.90;;;;;;5064699;28;20547;-64
2023/01/31 02:24:55;;;;;;;0.60;0.45;;;3.40;99.90;;;;;;5070366;28;20199;-64
2023/01/31 02:27:34;;;;;;;0.65;0.50;;;3.10;99.90;;;;;;5033119;28;20223;-64
2023/01/31 02:30:20;;;;;;;1.00;0.70;;;3.10;99.90;;;;;;5072216;28;20641;-65
2023/01/31 02:32:57;;;;;;;0.60;0.45;;;3.30;99.90;;;;;;5072518;28;20204;-65
2023/01/31 02:35:36;;;;;;;3.20;1.02;;;3.80;99.90;;;;;;5073100;28;20222;-65
2023/01/31 02:38:19;;;;;;;2.50;0.70;;;3.90;99.90;;;;;;5071512;28;20307;-65
2023/01/31 02:40:50;;;;;;;0.75;0.75;;;3.80;99.90;;;;;;5064961;28;20207;-65
2023/01/31 02:43:22;;;;;;;0.95;0.50;;;3.50;99.90;;;;;;5063731;28;20202;-65
2023/01/31 02:45:58;;;;;;;0.60;0.50;;;3.20;99.90;;;;;;5066793;28;20245;-64
2023/01/31 02:48:40;;;;;;;0.60;0.43;;;3.50;99.90;;;;;;5108271;22;20874;-62
2023/01/31 02:51:14;;;;;;;1.20;0.70;;;3.80;99.90;;;;;;5087811;28;20215;-62
2023/01/31 02:53:47;;;;;;;1.00;0.50;;;3.90;99.90;;;;;;5083959;28;20254;-62
2023/01/31 02:56:18;;;;;;;1.15;0.70;;;3.90;99.90;;;;;;5088809;28;20211;-62
2023/01/31 02:58:54;;;;;;;1.13;0.60;;;4.20;99.90;;;;;;5082571;28;20795;-62
2023/01/31 03:01:30;;;;;;;0.77;0.40;;;4.40;99.90;;;;;;5087480;28;20275;-62
2023/01/31 03:04:02;;;;;;;1.80;0.80;;;4.60;99.90;;;;;;5088247;28;20230;-62
2023/01/31 03:06:58;;;;;;;0.70;0.50;;;4.80;99.90;;;;;;5088336;28;20286;-62
2023/01/31 03:09:38;;;;;;;0.55;0.50;;;4.80;99.90;;;;;;5089135;28;20199;-62
2023/01/31 03:12:36;;;;;;;1.13;0.85;;;4.80;99.90;;;;;;5091446;28;20204;-62
2023/01/31 03:15:19;;;;;;;1.92;0.68;;;4.90;99.90;;;;;;5091551;28;20599;-62
2023/01/31 03:17:57;;;;;;;0.50;0.40;;;4.90;99.90;;;;;;5073005;28;20222;-62
2023/01/31 03:20:34;;;;;;;1.10;0.88;;;4.80;99.90;;;;;;5087122;28;20228;-62
2023/01/31 03:23:08;;;;;;;1.02;0.82;;;4.60;99.90;;;;;;5086573;28;20322;-62
2023/01/31 03:25:38;;;;;;;0.90;0.90;;;4.70;99.90;;;;;;5084430;28;20287;-61
2023/01/31 03:28:11;;;;;;;1.25;0.45;;;4.80;99.90;;;;;;5085820;28;20223;-63
2023/01/31 03:30:42;;;;;;;1.05;0.95;;;4.80;99.90;;;;;;5085054;28;20212;-62
2023/01/31 03:33:16;;;;;;;0.73;0.50;;;4.50;99.90;;;;;;5084729;28;20207;-61
2023/01/31 03:35:48;;;;;;;0.70;0.60;;;4.60;99.90;;;;;;5084101;28;20214;-63
2023/01/31 03:38:21;;;;;;;1.45;0.90;;;4.70;99.90;;;;;;5084170;28;20224;-62
2023/01/31 03:40:56;;;;;;;4.72;0.90;;;4.30;99.90;;;;;;5078593;28;20641;-62
2023/01/31 03:43:28;;;;;;;1.35;0.55;;;4.10;99.90;;;;;;5066904;28;20673;-61
2023/01/31 03:45:59;;;;;;;0.80;0.55;;;3.90;99.90;;;;;;5082494;28;20315;-62
2023/01/31 03:48:33;;;;;;;0.70;0.68;;;3.50;99.90;;;;;;5085096;28;20944;-61
2023/01/31 03:51:07;;;;;;;0.60;0.50;;;3.40;99.90;;;;;;5089165;28;20210;-62
2023/01/31 03:53:40;;;;;;;0.60;0.50;;;3.40;99.90;;;;;;5087761;28;20671;-62
2023/01/31 03:56:15;;;;;;;1.95;0.50;;;3.50;99.90;;;;;;5086776;28;20204;-62
2023/01/31 03:58:46;;;;;;;0.63;0.60;;;3.70;99.90;;;;;;5085107;28;20302;-61
2023/01/31 04:01:16;;;;;;;1.17;1.08;;;3.80;99.90;;;;;;5083447;28;20331;-62
2023/01/31 04:03:48;;;;;;;0.80;0.75;;;3.70;99.90;;;;;;5082300;28;20220;-62
2023/01/31 04:06:17;;;;;;;1.25;1.15;;;3.80;99.90;;;;;;5085543;28;20202;-62
2023/01/31 04:08:45;;;;;;;1.25;0.60;;;3.80;99.90;;;;;;5085804;28;20211;-62
2023/01/31 04:11:14;;;;;;;0.95;0.70;;;3.90;99.90;;;;;;5085471;28;20281;-62
2023/01/31 04:13:42;;;;;;;0.60;0.50;;;3.80;99.90;;;;;;5084929;28;20286;-62
2023/01/31 04:16:10;;;;;;;0.50;0.40;;;3.80;99.90;;;;;;5082669;28;20279;-62
2023/01/31 04:18:38;;;;;;;1.30;0.80;;;3.80;99.90;;;;;;5075435;28;20250;-62
2023/01/31 04:21:06;;;;;;;2.00;0.82;;;3.70;99.90;;;;;;5087195;28;20199;-62
2023/01/31 04:23:36;;;;;;;1.20;0.93;;;3.70;99.90;;;;;;5088151;28;20240;-62
2023/01/31 04:26:04;;;;;;;3.33;0.93;;;3.80;99.90;;;;;;5086127;28;20285;-62
2023/01/31 04:28:32;;;;;;;1.00;0.77;;;3.80;99.90;;;;;;5087049;28;20288;-62
2023/01/31 04:31:00;;;;;;;0.88;0.75;;;3.70;99.90;;;;;;5087980;28;20277;-62
2023/01/31 04:33:28;;;;;;;1.80;1.10;;;3.60;99.90;;;;;;5083871;28;20205;-62
2023/01/31 04:35:56;;;;;;;1.10;1.00;;;3.60;99.90;;;;;;5084429;28;20291;-62
2023/01/31 04:38:23;;;;;;;0.60;0.50;;;3.50;99.90;;;;;;5084680;28;20219;-62
2023/01/31 04:40:53;;;;;;;0.60;0.57;;;3.50;99.90;;;;;;5087160;28;20277;-62
2023/01/31 04:43:20;;;;;;;2.00;0.95;;;3.70;99.90;;;;;;5088987;28;20196;-62
2023/01/31 04:45:49;;;;;;;0.60;0.40;;;3.70;99.90;;;;;;5086003;28;20211;-62
2023/01/31 04:48:17;;;;;;;0.60;0.50;;;3.80;99.90;;;;;;5087368;28;20224;-63
2023/01/31 04:50:45;;;;;;;0.93;0.70;;;3.70;99.90;;;;;;5086445;28;20214;-63
2023/01/31 04:53:14;;;;;;;4.40;0.90;;;3.70;99.90;;;;;;5086563;28;20270;-63
2023/01/31 04:55:42;;;;;;;2.92;0.63;;;3.80;99.90;;;;;;5087166;28;20230;-62
2023/01/31 04:58:11;;;;;;;0.70;0.50;;;3.80;99.90;;;;;;5085110;28;20230;-63
2023/01/31 05:00:39;;;;;;;1.52;1.10;;;3.70;99.90;;;;;;5085471;28;20288;-62
2023/01/31 05:03:06;;;;;;;0.60;0.50;;;3.50;99.90;;;;;;5084473;28;20198;-62
2023/01/31 05:05:35;;;;;;;1.13;0.60;;;3.50;99.90;;;;;;5081686;28;20223;-63
2023/01/31 05:08:04;;;;;;;0.60;0.50;;;3.50;99.90;;;;;;5086113;28;20215;-63
2023/01/31 05:10:34;;;;;;;0.60;0.52;;;3.30;99.90;;;;;;5087412;28;20194;-63
2023/01/31 05:13:02;;;;;;;1.27;0.60;;;3.30;99.90;;;;;;5083059;28;20194;-63
2023/01/31 05:15:32;;;;;;;3.60;0.88;;;3.40;99.90;;;;;;5087210;28;20237;-61
2023/01/31 05:18:02;;;;;;;0.70;0.50;;;3.30;99.90;;;;;;5085959;28;20309;-62
2023/01/31 05:20:32;;;;;;;0.90;0.73;;;3.30;99.90;;;;;;5080153;28;20200;-62
2023/01/31 05:23:00;;;;;;;1.17;0.77;;;3.30;99.90;;;;;;5084473;28;20672;-62
2023/01/31 05:25:29;;;;;;;0.80;0.60;;;3.40;99.90;;;;;;5088193;28;20674;-62
2023/01/31 05:27:58;;;;;;;2.05;0.68;;;3.30;99.90;;;;;;5084397;28;20246;-63
2023/01/31 05:30:26;;;;;;;0.80;0.60;;;3.40;99.90;;;;;;5084492;28;20202;-65
2023/01/31 05:32:55;;;;;;;1.17;1.00;;;3.30;99.90;;;;;;5088170;28;20279;-63
2023/01/31 05:35:23;;;;;;;0.70;0.60;;;3.30;99.90;;;;;;5085719;28;20197;-62
2023/01/31 05:37:53;;;;;;;0.60;0.60;;;3.30;99.90;;;;;;5087717;28;20234;-62
2023/01/31 05:40:21;;;;;;;0.95;0.70;;;3.40;99.90;;;;;;5085310;28;20754;-62
2023/01/31 05:42:53;;;;;;;1.33;0.80;;;3.40;99.90;;;;;;5091397;28;20665;-62
2023/01/31 05:45:22;;;;;;;0.70;0.50;;;3.30;99.90;;;;;;5088156;28;20234;-63
2023/01/31 05:47:50;;;;;;;0.98;0.60;;;3.20;99.90;;;;;;5091055;28;20228;-62
2023/01/31 05:50:20;;;;;;;2.03;0.68;;;3.00;99.90;;;;;;5087317;28;20271;-62
2023/01/31 05:52:51;;;;;;;1.00;0.90;;;3.10;99.90;;;;;;5089818;28;20227;-62
2023/01/31 05:55:19;;;;;;;0.60;0.50;;;3.20;99.90;;;;;;5092062;28;20192;-61
2023/01/31 05:57:48;;;;;;;0.63;0.57;;;3.30;99.90;;;;;;5086184;28;20235;-63
2023/01/31 06:00:16;;;;;;;0.65;0.65;;;3.30;99.90;;;;;;5090663;28;20212;-62
2023/01/31 06:02:45;;;;;;;0.73;0.55;;;3.30;99.90;;;;;;5094059;28;20815;-62
2023/01/31 06:05:13;;;;;;;1.17;1.08;;;3.30;99.90;;;;;;5088094;28;20273;-61
2023/01/31 06:07:42;;;;;;;3.85;0.50;;;3.40;99.90;;;;;;5090677;28;20246;-62
2023/01/31 06:10:13;;;;;;;1.40;0.77;;;3.40;99.90;;;;;;5091837;28;20270;-62
2023/01/31 06:12:41;;;;;;;0.90;0.50;;;3.40;99.90;;;;;;5087302;28;20210;-64
2023/01/31 06:15:10;;;;;;;0.70;0.70;;;3.20;99.90;;;;;;5085204;28;20235;-64
2023/01/31 06:17:38;;;;;;;0.65;0.50;;;3.00;99.90;;;;;;5086494;28;20314;-65
2023/01/31 06:20:06;;;;;;;0.60;0.50;;;2.80;99.90;;;;;;5086955;28;20691;-64
2023/01/31 06:22:34;;;;;;;0.60;0.40;;;2.70;99.90;;;;;;5088414;28;20614;-65
2023/01/31 06:25:04;;;;;;;0.70;0.60;;;2.50;99.90;;;;;;5088835;28;20546;-64
2023/01/31 06:27:32;;;;;;;1.67;0.60;;;2.40;99.90;;;;;;5089328;28;20253;-63
2023/01/31 06:30:00;;;;;;;1.35;0.80;;;2.30;99.90;;;;;;5087904;28;20204;-64
2023/01/31 06:32:28;;;;;;;5.05;0.82;;;2.20;99.90;;;;;;5088470;28;20200;-64
2023/01/31 06:34:56;;;;;;;0.80;0.52;;;2.30;99.90;;;;;;5090688;28;20937;-63
2023/01/31 06:37:24;;;;;;;0.68;0.60;;;2.20;99.90;;;;;;5088431;28;20230;-63
2023/01/31 06:39:52;;;;;;;0.80;0.60;;;2.20;99.90;;;;;;5088308;28;20315;-63
2023/01/31 06:42:21;;;;;;;4.50;1.00;;;2.30;99.90;;;;;;5089175;28;20194;-63
2023/01/31 06:44:49;;;;;;;1.20;0.95;;;2.20;99.90;;;;;;5085656;28;21300;-64
2023/01/31 06:47:16;;;;;;;0.82;0.70;;;2.20;99.90;;;;;;5083823;28;20319;-64
2023/01/31 06:49:44;;;;;;;2.40;1.25;;;2.20;99.90;;;;;;5083974;28;20217;-63
2023/01/31 06:52:12;;;;;;;0.93;0.57;;;2.30;99.90;;;;;;5081568;28;20676;-64
2023/01/31 06:54:41;;;;;;;0.60;0.50;;;2.30;99.90;;;;;;5085185;28;20231;-64
2023/01/31 06:57:09;;;;;;;1.70;1.00;;;2.30;99.90;;;;;;5088233;28;20220;-63
2023/01/31 06:59:38;;;;;;;1.50;1.15;;;2.30;99.90;;;;;;5086139;28;20230;-63
2023/01/31 07:02:06;;;;;;;2.50;1.92;;;2.30;99.90;;;;;;5086911;28;20259;-64
2023/01/31 07:04:34;;;;;;;1.80;0.85;;;2.20;99.90;;;;;;5083782;28;20235;-64
2023/01/31 07:07:02;;;;;;;1.10;1.00;;;2.20;99.90;;;;;;5092082;28;20225;-64
2023/01/31 07:09:30;;;;;;;1.55;0.63;;;2.10;99.90;;;;;;5083874;28;20207;-62
2023/01/31 07:11:58;;;;;;;0.95;0.77;;;2.10;99.90;;;;;;5072752;28;20744;-63
2023/01/31 07:14:25;;;;;;;0.80;0.63;;;2.10;99.90;;;;;;5074366;28;20686;-64
2023/01/31 07:16:55;;;;;;;1.67;1.33;;;2.10;99.90;;;;;;5092082;28;20215;-63
2023/01/31 07:19:23;;;;;;;2.35;1.13;;;2.10;99.90;;;;;;5090245;28;20243;-62
2023/01/31 07:21:51;;;;;;;3.85;2.03;;;2.10;99.90;;;;;;5090485;28;20210;-63
2023/01/31 07:24:19;;;;;;;1.05;0.60;;;2.00;99.90;;;;;;5090093;28;20188;-61
2023/01/31 07:26:47;;;;;;;0.80;0.70;;;4.90;99.90;;;;;;5087785;28;20228;-62
2023/01/31 07:29:15;;;;;;;2.15;1.52;;;7.10;99.90;;;;;;5090440;28;20207;-62
2023/01/31 07:31:43;;;;;;;0.70;0.70;;;7.70;99.90;;;;;;5089300;28;20283;-62
2023/01/31 07:34:12;;;;;;;0.70;0.60;;;8.40;99.90;;;;;;5086884;28;20204;-62
2023/01/31 07:36:40;;;;;;;1.30;0.68;;;7.70;99.90;;;;;;5086813;28;20283;-63
2023/01/31 07:39:08;;;;;;;1.20;0.60;;;7.40;99.90;;;;;;5091289;28;20196;-64
2023/01/31 07:41:36;;;;;;;0.82;0.50;;;6.60;99.90;;;;;;5089929;28;20223;-64
2023/01/31 07:44:07;;;;;;;0.75;0.70;;;5.70;99.90;;;;;;5091511;28;20197;-64
2023/01/31 07:46:35;;;;;;;6.70;4.45;;;4.90;99.90;;;;;;5090098;28;20279;-64
2023/01/31 07:49:03;;;;;;;1.23;0.80;;;4.60;99.90;;;;;;5091631;28;20200;-63
2023/01/31 07:51:33;;;;;;;1.10;1.00;;;4.10;99.90;;;;;;5089782;28;20203;-63
2023/01/31 07:54:01;;;;;;;1.77;1.35;;;3.80;99.90;;;;;;5091593;28;20198;-64
2023/01/31 07:56:29;;;;;;;4.40;1.27;;;3.70;99.90;;;;;;5089552;28;20280;-63
2023/01/31 07:58:59;;;;;;;0.95;0.85;;;3.60;99.90;;;;;;5091192;28;20194;-63
2023/01/31 08:04:17;;;;;;;1.17;0.93;;;3.40;99.90;;;;;;5091467;28;20206;-63
2023/01/31 08:06:54;;;;;;;1.15;0.77;;;3.30;99.90;;;;;;5090981;28;20753;-64
2023/01/31 08:09:21;;;;;;;2.08;1.65;;;3.20;99.90;;;;;;5090741;28;20200;-64
2023/01/31 08:11:50;;;;;;;1.80;0.90;;;3.10;99.90;;;;;;5083350;28;20199;-63
2023/01/31 08:14:22;;;;;;;1.90;1.05;;;3.00;99.90;;;;;;5090333;28;20254;-63
2023/01/31 08:16:50;;;;;;;1.58;1.10;;;2.80;99.90;;;;;;5091315;28;20216;-63
2023/01/31 08:19:18;;;;;;;1.45;1.00;;;2.80;99.90;;;;;;5089755;28;20261;-63
2023/01/31 08:21:46;;;;;;;1.77;1.10;;;2.80;99.90;;;;;;5090173;28;20250;-63
2023/01/31 08:24:15;;;;;;;1.60;1.13;;;2.80;99.90;;;;;;5087380;28;20207;-64
2023/01/31 08:26:43;;;;;;;2.17;1.13;;;2.80;99.90;;;;;;5091170;28;20637;-63
2023/01/31 08:29:11;;;;;;;0.73;0.60;;;2.80;99.90;;;;;;5090116;28;20205;-63
2023/01/31 08:31:40;;;;;;;2.13;0.80;;;2.80;99.90;;;;;;5082141;28;20277;-63
2023/01/31 08:34:09;;;;;;;1.52;1.42;;;2.80;99.90;;;;;;5087688;28;20295;-63
2023/01/31 08:36:37;;;;;;;1.33;1.05;;;2.80;99.90;;;;;;5089619;28;20241;-63
2023/01/31 08:39:05;;;;;;;1.50;1.40;;;2.80;99.90;;;;;;5089820;28;20209;-63
2023/01/31 08:41:36;;;;;;;2.75;2.42;;;2.80;99.90;;;;;;5090076;28;20207;-63
2023/01/31 08:44:04;;;;;;;1.20;1.10;;;2.80;99.90;;;;;;5090324;28;20207;-63
2023/01/31 08:46:34;;;;;;;1.98;1.73;;;2.80;99.90;;;;;;5090538;28;20223;-63
2023/01/31 08:49:04;;;;;;;1.27;1.17;;;2.80;99.90;;;;;;5091539;28;20570;-63
2023/01/31 08:51:32;;;;;;;1.63;1.45;;;2.80;99.90;;;;;;5090142;28;20338;-63
2023/01/31 08:54:00;;;;;;;1.35;1.20;;;2.80;99.90;;;;;;5089692;28;20206;-63
2023/01/31 08:56:28;;;;;;;3.00;2.70;;;2.80;99.90;;;;;;5089529;28;20287;-63
2023/01/31 08:58:58;;;;;;;2.42;1.60;;;3.00;99.90;;;;;;5090530;28;20248;-63
2023/01/31 09:01:26;;;;;;;1.27;1.17;;;3.00;99.90;;;;;;5089150;28;20223;-63
2023/01/31 09:03:55;;;;;;;4.75;2.78;;;3.10;99.90;;;;;;5090752;28;20202;-63
2023/01/31 09:06:26;;;;;;;2.08;1.88;;;3.20;99.90;;;;;;5089919;28;20211;-63
2023/01/31 09:08:55;;;;;;;1.60;1.50;;;3.30;99.90;;;;;;5089382;28;20199;-63
2023/01/31 09:11:23;;;;;;;2.08;1.88;;;3.30;99.90;;;;;;5091084;28;20278;-63
2023/01/31 09:13:51;;;;;;;3.40;2.08;;;3.20;99.90;;;;;;5094741;28;20204;-63
2023/01/31 09:16:20;;;;;;;5.28;2.63;;;3.30;99.90;;;;;;5093959;28;20283;-63
2023/01/31 09:18:48;;;;;;;2.00;1.83;;;3.40;99.90;;;;;;5093500;28;20223;-64
2023/01/31 09:21:18;;;;;;;2.47;2.28;;;3.40;99.90;;;;;;5093835;28;20301;-63
2023/01/31 09:23:48;;;;;;;1.63;1.52;;;3.40;99.90;;;;;;5093680;28;20200;-63
2023/01/31 09:26:16;;;;;;;2.88;2.35;;;3.40;99.90;;;;;;5094242;28;20260;-64
2023/01/31 09:28:44;;;;;;;1.55;1.45;;;3.40;99.90;;;;;;5092906;28;20235;-64
2023/01/31 09:31:14;;;;;;;2.10;1.70;;;3.30;99.90;;;;;;5092539;28;20206;-63
2023/01/31 09:33:44;;;;;;;2.10;1.90;;;3.40;99.90;;;;;;5085825;28;20238;-63
2023/01/31 09:36:14;;;;;;;4.13;1.95;;;3.50;99.90;;;;;;5094005;28;20691;-63
2023/01/31 09:38:42;;;;;;;1.63;1.52;;;3.50;99.90;;;;;;5076686;28;20215;-63
2023/01/31 09:41:19;;;;;;;3.67;2.00;;;3.50;99.90;;;;;;5093219;28;20293;-63
2023/01/31 09:43:54;;;;;;;1.85;1.60;;;3.50;99.90;;;;;;5077870;28;20195;-64
2023/01/31 09:46:26;;;;;;;3.40;2.45;;;3.50;99.90;;;;;;5093027;28;20278;-63
2023/01/31 09:49:00;;;;;;;2.13;1.90;;;3.50;99.90;;;;;;5093477;28;20223;-63
2023/01/31 09:51:29;;;;;;;1.60;1.40;;;3.60;99.90;;;;;;5092072;28;20250;-63
2023/01/31 09:53:57;;;;;;;2.45;1.55;;;3.50;99.90;;;;;;5093504;28;20209;-64
2023/01/31 09:56:34;;;;;;;3.38;1.95;;;3.50;99.90;;;;;;5092684;28;20199;-63
2023/01/31 09:59:14;;;;;;;2.80;2.30;;;3.40;99.90;;;;;;5093655;28;20278;-63
2023/01/31 10:01:48;;;;;;;2.22;1.80;;;3.50;99.90;;;;;;5091937;28;20215;-64
2023/01/31 10:04:29;;;;;;;1.70;1.30;;;3.50;99.90;;;;;;5093562;28;20289;-64
2023/01/31 10:07:03;;;;;;;3.65;1.75;;;3.50;99.90;;;;;;5092757;28;20316;-64
2023/01/31 10:09:35;;;;;;;3.05;2.85;;;3.60;99.90;;;;;;5091812;28;20197;-63
2023/01/31 10:12:12;;;;;;;3.28;1.52;;;3.60;99.90;;;;;;5093551;28;20199;-64
2023/01/31 10:14:46;;;;;;;2.28;1.50;;;3.60;99.90;;;;;;5092673;28;20206;-63
2023/01/31 10:17:20;;;;;;;4.38;1.90;;;3.50;99.90;;;;;;5092321;28;20737;-63
2023/01/31 10:19:55;;;;;;;2.38;1.65;;;3.50;99.90;;;;;;5092489;28;20590;-64
2023/01/31 10:22:29;;;;;;;1.73;1.38;;;3.40;99.90;;;;;;5090444;28;20225;-63
2023/01/31 10:25:02;;;;;;;1.80;1.70;;;3.40;99.90;;;;;;5091934;28;20252;-63
2023/01/31 10:27:40;;;;;;;3.90;1.65;;;3.40;99.90;;;;;;5092073;28;20220;-64
2023/01/31 10:30:17;;;;;;;1.60;1.42;;;3.40;99.90;;;;;;5092443;28;20699;-63
2023/01/31 10:32:50;;;;;;;4.25;2.40;;;3.40;99.90;;;;;;5082061;28;20191;-64
2023/01/31 10:35:24;;;;;;;1.42;1.33;;;3.40;99.90;;;;;;5073047;28;20224;-63
2023/01/31 10:37:57;;;;;;;2.40;1.95;;;3.40;99.90;;;;;;5083768;28;20223;-64
2023/01/31 10:40:30;;;;;;;3.45;1.98;;;3.40;99.90;;;;;;5092125;28;20195;-63
2023/01/31 10:43:08;;;;;;;3.38;1.98;;;3.40;99.90;;;;;;5091284;28;20246;-63
2023/01/31 10:45:37;;;;;;;1.83;1.35;;;3.50;99.90;;;;;;5075031;28;20199;-63
2023/01/31 10:48:16;;;;;;;4.22;2.17;;;3.50;99.90;;;;;;5091431;28;20243;-64
2023/01/31 10:50:58;;;;;;;4.20;2.38;;;3.50;99.90;;;;;;5084544;28;20259;-63
2023/01/31 10:53:47;;;;;;;3.17;2.88;;;3.60;99.90;;;;;;5091752;28;20278;-63
2023/01/31 10:56:20;;;;;;;1.83;1.63;;;3.70;99.90;;;;;;5090964;28;20207;-63
2023/01/31 10:58:50;;;;;;;1.40;1.30;;;3.80;99.90;;;;;;5085542;28;20265;-64
2023/01/31 11:01:18;;;;;;;1.17;1.10;;;3.90;99.90;;;;;;5090753;28;20295;-63
2023/01/31 11:03:49;;;;;;;1.40;1.30;;;4.00;99.90;;;;;;5082328;28;20217;-64
2023/01/31 11:06:19;;;;;;;1.52;1.42;;;4.00;99.90;;;;;;5092523;28;20693;-63
2023/01/31 11:08:50;;;;;;;2.40;2.13;;;4.10;99.90;;;;;;5090296;28;20648;-63
2023/01/31 11:11:20;;;;;;;2.63;1.48;;;4.10;99.90;;;;;;5090294;28;20242;-63
2023/01/31 11:13:58;;;;;;;1.63;1.17;;;4.20;99.90;;;;;;5092204;28;20231;-63
2023/01/31 11:16:30;;;;;;;1.92;0.98;;;4.30;99.90;;;;;;5088965;28;20322;-63
2023/01/31 11:19:01;;;;;;;1.35;1.25;;;4.30;99.90;;;;;;5091610;28;20199;-63
2023/01/31 11:21:33;;;;;;;3.00;2.55;;;4.30;99.90;;;;;;5091245;28;20633;-63
2023/01/31 11:24:04;;;;;;;2.97;1.90;;;4.40;99.90;;;;;;5090971;28;20664;-63
2023/01/31 11:26:34;;;;;;;1.30;1.20;;;4.40;99.90;;;;;;5090331;28;20215;-63
2023/01/31 11:29:07;;;;;;;1.65;1.23;;;4.50;99.90;;;;;;5091951;28;20200;-63
2023/01/31 11:31:40;;;;;;;2.00;1.10;;;4.40;99.90;;;;;;5085754;28;20200;-63
2023/01/31 11:34:19;;;;;;;1.90;1.52;;;4.60;99.90;;;;;;5071541;28;20203;-64
2023/01/31 11:36:48;;;;;;;3.00;2.40;;;4.60;99.90;;;;;;5077197;28;20248;-63
2023/01/31 11:39:31;;;;;;;1.35;1.10;;;4.60;99.90;;;;;;5090535;28;20286;-63
2023/01/31 11:42:06;;;;;;;2.53;1.30;;;4.60;99.90;;;;;;5090557;28;20241;-63
2023/01/31 11:44:34;;;;;;;1.35;1.25;;;4.60;99.90;;;;;;5091837;28;20227;-64
2023/01/31 11:47:11;;;;;;;2.08;1.10;;;4.60;99.90;;;;;;5090702;28;20798;-63
2023/01/31 11:49:42;;;;;;;2.47;1.60;;;4.70;99.90;;;;;;5082698;28;20690;-63
2023/01/31 11:52:17;;;;;;;2.30;1.70;;;4.80;99.90;;;;;;5090772;28;20644;-64
2023/01/31 11:54:48;;;;;;;2.80;1.70;;;4.80;99.90;;;;;;5084189;28;20289;-64
2023/01/31 11:57:21;;;;;;;1.85;1.10;;;4.90;99.90;;;;;;5090647;28;20222;-64
2023/01/31 11:59:51;;;;;;;1.70;1.20;;;4.90;99.90;;;;;;5090891;28;20282;-65
2023/01/31 12:02:27;;;;;;;1.52;1.42;;;4.80;99.90;;;;;;5090306;28;20215;-64
2023/01/31 12:04:56;;;;;;;1.60;1.40;;;4.80;99.90;;;;;;5091606;28;20200;-64
2023/01/31 12:07:29;;;;;;;2.35;1.27;;;4.70;99.90;;;;;;5088621;28;20220;-65
2023/01/31 12:09:57;;;;;;;2.08;1.20;;;4.80;99.90;;;;;;5089285;28;20240;-65
2023/01/31 12:12:30;;;;;;;1.30;1.00;;;4.70;99.90;;;;;;5091331;28;20191;-65
2023/01/31 12:15:01;;;;;;;1.85;1.35;;;4.70;99.90;;;;;;5090661;28;20199;-64
2023/01/31 12:17:34;;;;;;;1.80;1.17;;;4.70;99.90;;;;;;5088605;28;20225;-64
2023/01/31 12:20:19;;;;;;;1.48;1.38;;;4.70;99.90;;;;;;5090538;28;20577;-65
2023/01/31 12:23:10;;;;;;;2.15;1.63;;;4.70;99.90;;;;;;5090382;28;20624;-63
2023/01/31 12:25:51;;;;;;;1.63;1.38;;;4.60;99.90;;;;;;5090969;28;20752;-64
2023/01/31 12:28:32;;;;;;;1.30;1.00;;;4.60;99.90;;;;;;5090547;28;20219;-64
2023/01/31 12:31:27;;;;;;;1.15;1.05;;;4.70;99.90;;;;;;5090235;28;20202;-64
2023/01/31 12:34:10;;;;;;;5.47;1.52;;;4.70;99.90;;;;;;5079004;28;20212;-65
2023/01/31 12:36:47;;;;;;;1.17;1.00;;;4.70;99.90;;;;;;5090465;28;20205;-64
2023/01/31 12:39:41;;;;;;;1.30;1.00;;;4.80;99.90;;;;;;5090086;28;20239;-64
2023/01/31 12:42:28;;;;;;;1.23;1.13;;;4.80;99.90;;;;;;5090643;28;20639;-64
2023/01/31 12:45:06;;;;;;;5.28;1.52;;;4.80;99.90;;;;;;5089960;28;20236;-64
2023/01/31 12:47:55;;;;;;;1.02;0.93;;;4.80;99.90;;;;;;5093464;28;20723;-65
2023/01/31 12:50:31;;;;;;;1.88;1.30;;;4.80;99.90;;;;;;5094362;28;20198;-64
2023/01/31 12:53:20;;;;;;;2.10;1.10;;;4.80;99.90;;;;;;5094331;28;20587;-64
2023/01/31 12:56:03;;;;;;;2.38;1.38;;;4.90;99.90;;;;;;5088031;28;20244;-64
2023/01/31 12:58:44;;;;;;;1.00;0.90;;;4.90;99.90;;;;;;5093931;28;20218;-64
2023/01/31 13:01:17;;;;;;;1.40;1.20;;;5.00;99.90;;;;;;5092929;28;20225;-64
2023/01/31 13:03:58;;;;;;;1.50;1.40;;;4.90;99.90;;;;;;5087263;28;20213;-64
2023/01/31 13:06:32;;;;;;;2.45;1.98;;;5.00;99.90;;;;;;5094120;28;20675;-64
2023/01/31 13:09:03;;;;;;;1.50;1.15;;;5.00;99.90;;;;;;5093770;28;20204;-64
2023/01/31 13:11:40;;;;;;;2.38;0.90;;;5.10;99.90;;;;;;5093257;28;20708;-63
2023/01/31 13:14:13;;;;;;;2.45;1.30;;;5.10;99.90;;;;;;5093786;28;20278;-64
2023/01/31 13:16:44;;;;;;;2.00;1.33;;;5.10;99.90;;;;;;5094399;28;20276;-64
2023/01/31 13:19:18;;;;;;;1.67;1.20;;;5.10;99.90;;;;;;5094715;28;20722;-64
2023/01/31 13:21:49;;;;;;;0.80;0.80;;;5.10;99.90;;;;;;5086382;28;20207;-64
2023/01/31 13:24:21;;;;;;;1.60;1.08;;;5.10;99.90;;;;;;5093315;28;20226;-62